sensor_id;sensor_type;location;lat;lon;timestamp;P1;durP1;ratioP1;P2;durP2;ratioP2
62693;SDS011;48759;52.544;13.418;2023-05-15T00:01:39;18.30;;;12.67;;
62693;SDS011;48759;52.544;13.418;2023-05-15T00:04:09;14.73;;;10.33;;
62693;SDS011;48759;52.544;13.418;2023-05-15T00:06:40;19.57;;;11.97;;
62693;SDS011;48759;52.544;13.418;2023-05-15T00:09:10;16.53;;;12.30;;
62693;SDS011;48759;52.544;13.418;2023-05-15T00:11:37;15.40;;;11.80;;
62693;SDS011;48759;52.544;13.418;2023-05-15T00:14:05;19.47;;;12.90;;
62693;SDS011;48759;52.544;13.418;2023-05-15T00:16:33;17.87;;;14.77;;
62693;SDS011;48759;52.544;13.418;2023-05-15T00:19:02;18.47;;;15.43;;
62693;SDS011;48759;52.544;13.418;2023-05-15T00:21:30;16.30;;;14.13;;
62693;SDS011;48759;52.544;13.418;2023-05-15T00:24:01;24.87;;;15.40;;
62693;SDS011;48759;52.544;13.418;2023-05-15T00:26:29;20.70;;;15.30;;
62693;SDS011;48759;52.544;13.418;2023-05-15T00:29:00;19.60;;;14.17;;
62693;SDS011;48759;52.544;13.418;2023-05-15T00:31:32;19.70;;;14.53;;
62693;SDS011;48759;52.544;13.418;2023-05-15T00:34:08;21.20;;;14.73;;
62693;SDS011;48759;52.544;13.418;2023-05-15T00:36:35;22.70;;;14.47;;
62693;SDS011;48759;52.544;13.418;2023-05-15T00:39:07;19.93;;;15.20;;
62693;SDS011;48759;52.544;13.418;2023-05-15T00:41:35;22.97;;;14.20;;
62693;SDS011;48759;52.544;13.418;2023-05-15T00:44:06;17.00;;;14.37;;
62693;SDS011;48759;52.544;13.418;2023-05-15T00:46:37;20.10;;;14.30;;
62693;SDS011;48759;52.544;13.418;2023-05-15T00:49:05;18.27;;;14.10;;
62693;SDS011;48759;52.544;13.418;2023-05-15T00:51:37;17.40;;;13.57;;
62693;SDS011;48759;52.544;13.418;2023-05-15T00:54:10;20.30;;;13.50;;
62693;SDS011;48759;52.544;13.418;2023-05-15T00:56:41;20.50;;;13.90;;
62693;SDS011;48759;52.544;13.418;2023-05-15T00:59:12;17.83;;;13.50;;
62693;SDS011;48759;52.544;13.418;2023-05-15T01:01:41;20.50;;;14.00;;
62693;SDS011;48759;52.544;13.418;2023-05-15T01:04:13;18.70;;;13.30;;
62693;SDS011;48759;52.544;13.418;2023-05-15T01:06:42;14.63;;;13.13;;
62693;SDS011;48759;52.544;13.418;2023-05-15T01:09:15;18.60;;;13.93;;
62693;SDS011;48759;52.544;13.418;2023-05-15T01:11:43;22.97;;;14.10;;
62693;SDS011;48759;52.544;13.418;2023-05-15T01:14:20;17.40;;;13.17;;
62693;SDS011;48759;52.544;13.418;2023-05-15T01:16:50;18.00;;;12.60;;
62693;SDS011;48759;52.544;13.418;2023-05-15T01:19:17;17.10;;;13.10;;
62693;SDS011;48759;52.544;13.418;2023-05-15T01:25:10;16.80;;;14.00;;
62693;SDS011;48759;52.544;13.418;2023-05-15T01:28:07;18.33;;;12.97;;
62693;SDS011;48759;52.544;13.418;2023-05-15T01:30:44;19.03;;;12.77;;
62693;SDS011;48759;52.544;13.418;2023-05-15T01:33:15;15.40;;;12.80;;
62693;SDS011;48759;52.544;13.418;2023-05-15T01:35:52;16.20;;;12.60;;
62693;SDS011;48759;52.544;13.418;2023-05-15T01:38:35;15.00;;;13.00;;
62693;SDS011;48759;52.544;13.418;2023-05-15T01:41:08;14.87;;;13.27;;
62693;SDS011;48759;52.544;13.418;2023-05-15T01:43:43;18.80;;;14.50;;
62693;SDS011;48759;52.544;13.418;2023-05-15T01:46:12;14.30;;;12.67;;
62693;SDS011;48759;52.544;13.418;2023-05-15T01:48:43;16.10;;;13.47;;
62693;SDS011;48759;52.544;13.418;2023-05-15T01:51:11;19.80;;;14.70;;
62693;SDS011;48759;52.544;13.418;2023-05-15T01:53:40;21.93;;;14.10;;
62693;SDS011;48759;52.544;13.418;2023-05-15T01:56:10;22.70;;;16.83;;
62693;SDS011;48759;52.544;13.418;2023-05-15T01:58:43;23.60;;;16.80;;
62693;SDS011;48759;52.544;13.418;2023-05-15T02:01:11;24.90;;;18.77;;
62693;SDS011;48759;52.544;13.418;2023-05-15T02:03:42;18.87;;;16.87;;
62693;SDS011;48759;52.544;13.418;2023-05-15T02:06:12;33.07;;;18.97;;
62693;SDS011;48759;52.544;13.418;2023-05-15T02:08:41;24.70;;;19.80;;
62693;SDS011;48759;52.544;13.418;2023-05-15T02:11:12;25.07;;;18.70;;
62693;SDS011;48759;52.544;13.418;2023-05-15T02:13:40;27.37;;;19.27;;
62693;SDS011;48759;52.544;13.418;2023-05-15T02:16:12;26.70;;;19.07;;
62693;SDS011;48759;52.544;13.418;2023-05-15T02:18:39;26.90;;;19.40;;
62693;SDS011;48759;52.544;13.418;2023-05-15T02:21:06;31.20;;;19.00;;
62693;SDS011;48759;52.544;13.418;2023-05-15T02:23:34;25.50;;;19.50;;
62693;SDS011;48759;52.544;13.418;2023-05-15T02:26:07;25.13;;;18.27;;
62693;SDS011;48759;52.544;13.418;2023-05-15T02:28:53;28.43;;;20.10;;
62693;SDS011;48759;52.544;13.418;2023-05-15T02:31:30;22.03;;;18.30;;
62693;SDS011;48759;52.544;13.418;2023-05-15T02:34:15;22.53;;;16.57;;
62693;SDS011;48759;52.544;13.418;2023-05-15T02:36:49;25.93;;;17.50;;
62693;SDS011;48759;52.544;13.418;2023-05-15T02:39:19;21.37;;;16.50;;
62693;SDS011;48759;52.544;13.418;2023-05-15T02:41:56;23.37;;;18.73;;
62693;SDS011;48759;52.544;13.418;2023-05-15T02:44:32;23.73;;;18.40;;
62693;SDS011;48759;52.544;13.418;2023-05-15T02:47:01;25.70;;;17.30;;
62693;SDS011;48759;52.544;13.418;2023-05-15T02:49:32;21.43;;;18.10;;
62693;SDS011;48759;52.544;13.418;2023-05-15T02:52:00;24.73;;;17.23;;
62693;SDS011;48759;52.544;13.418;2023-05-15T02:54:29;24.10;;;18.23;;
62693;SDS011;48759;52.544;13.418;2023-05-15T02:56:59;26.67;;;18.80;;
62693;SDS011;48759;52.544;13.418;2023-05-15T02:59:31;26.87;;;18.30;;
62693;SDS011;48759;52.544;13.418;2023-05-15T03:02:02;20.70;;;16.60;;
62693;SDS011;48759;52.544;13.418;2023-05-15T03:04:31;19.67;;;17.10;;
62693;SDS011;48759;52.544;13.418;2023-05-15T03:06:59;20.13;;;16.33;;
62693;SDS011;48759;52.544;13.418;2023-05-15T03:09:30;24.57;;;18.03;;
62693;SDS011;48759;52.544;13.418;2023-05-15T03:11:57;20.00;;;17.03;;
62693;SDS011;48759;52.544;13.418;2023-05-15T03:14:28;21.10;;;17.67;;
62693;SDS011;48759;52.544;13.418;2023-05-15T03:19:43;18.70;;;15.90;;
62693;SDS011;48759;52.544;13.418;2023-05-15T03:22:12;22.40;;;17.17;;
62693;SDS011;48759;52.544;13.418;2023-05-15T03:24:45;21.93;;;17.13;;
62693;SDS011;48759;52.544;13.418;2023-05-15T03:27:24;23.00;;;16.40;;
62693;SDS011;48759;52.544;13.418;2023-05-15T03:30:00;23.27;;;16.43;;
62693;SDS011;48759;52.544;13.418;2023-05-15T03:32:33;21.80;;;16.10;;
62693;SDS011;48759;52.544;13.418;2023-05-15T03:35:01;23.33;;;15.27;;
62693;SDS011;48759;52.544;13.418;2023-05-15T03:37:30;17.57;;;15.27;;
62693;SDS011;48759;52.544;13.418;2023-05-15T03:40:00;18.50;;;15.37;;
62693;SDS011;48759;52.544;13.418;2023-05-15T03:42:33;19.47;;;16.60;;
62693;SDS011;48759;52.544;13.418;2023-05-15T03:45:04;21.80;;;16.20;;
62693;SDS011;48759;52.544;13.418;2023-05-15T03:47:33;28.57;;;15.50;;
62693;SDS011;48759;52.544;13.418;2023-05-15T03:50:01;19.27;;;15.93;;
62693;SDS011;48759;52.544;13.418;2023-05-15T03:52:35;20.40;;;16.73;;
62693;SDS011;48759;52.544;13.418;2023-05-15T03:55:03;23.93;;;18.10;;
62693;SDS011;48759;52.544;13.418;2023-05-15T03:57:35;23.43;;;18.47;;
62693;SDS011;48759;52.544;13.418;2023-05-15T04:00:08;26.07;;;19.50;;
62693;SDS011;48759;52.544;13.418;2023-05-15T04:02:36;29.30;;;19.43;;
62693;SDS011;48759;52.544;13.418;2023-05-15T04:05:08;25.40;;;19.63;;
62693;SDS011;48759;52.544;13.418;2023-05-15T04:07:44;26.70;;;18.33;;
62693;SDS011;48759;52.544;13.418;2023-05-15T04:10:15;27.27;;;17.87;;
62693;SDS011;48759;52.544;13.418;2023-05-15T04:12:45;24.50;;;19.37;;
62693;SDS011;48759;52.544;13.418;2023-05-15T04:15:34;24.87;;;17.87;;
62693;SDS011;48759;52.544;13.418;2023-05-15T04:18:05;23.90;;;16.87;;
62693;SDS011;48759;52.544;13.418;2023-05-15T04:20:40;21.63;;;16.77;;
62693;SDS011;48759;52.544;13.418;2023-05-15T04:23:22;24.20;;;16.53;;
62693;SDS011;48759;52.544;13.418;2023-05-15T04:26:19;17.90;;;15.70;;
62693;SDS011;48759;52.544;13.418;2023-05-15T04:28:48;18.67;;;15.57;;
62693;SDS011;48759;52.544;13.418;2023-05-15T04:31:49;22.77;;;15.80;;
62693;SDS011;48759;52.544;13.418;2023-05-15T04:37:13;17.70;;;14.10;;
62693;SDS011;48759;52.544;13.418;2023-05-15T04:39:42;20.90;;;15.00;;
62693;SDS011;48759;52.544;13.418;2023-05-15T04:42:14;19.37;;;14.50;;
62693;SDS011;48759;52.544;13.418;2023-05-15T04:44:58;20.77;;;14.73;;
62693;SDS011;48759;52.544;13.418;2023-05-15T04:47:33;21.20;;;15.30;;
62693;SDS011;48759;52.544;13.418;2023-05-15T04:50:06;19.33;;;14.87;;
62693;SDS011;48759;52.544;13.418;2023-05-15T04:52:49;18.27;;;14.83;;
62693;SDS011;48759;52.544;13.418;2023-05-15T04:55:18;23.37;;;15.77;;
62693;SDS011;48759;52.544;13.418;2023-05-15T04:57:51;18.60;;;15.13;;
62693;SDS011;48759;52.544;13.418;2023-05-15T05:00:23;17.60;;;15.17;;
62693;SDS011;48759;52.544;13.418;2023-05-15T05:02:56;20.03;;;14.50;;
62693;SDS011;48759;52.544;13.418;2023-05-15T05:05:27;17.80;;;15.47;;
62693;SDS011;48759;52.544;13.418;2023-05-15T05:07:56;15.93;;;13.90;;
62693;SDS011;48759;52.544;13.418;2023-05-15T05:10:30;15.23;;;13.40;;
62693;SDS011;48759;52.544;13.418;2023-05-15T05:12:59;19.80;;;13.00;;
62693;SDS011;48759;52.544;13.418;2023-05-15T05:15:26;13.50;;;11.50;;
62693;SDS011;48759;52.544;13.418;2023-05-15T05:18:00;15.03;;;12.40;;
62693;SDS011;48759;52.544;13.418;2023-05-15T05:20:31;15.00;;;13.40;;
62693;SDS011;48759;52.544;13.418;2023-05-15T05:23:04;20.30;;;12.90;;
62693;SDS011;48759;52.544;13.418;2023-05-15T05:25:45;18.90;;;11.13;;
62693;SDS011;48759;52.544;13.418;2023-05-15T05:28:14;13.37;;;11.97;;
62693;SDS011;48759;52.544;13.418;2023-05-15T05:30:53;14.50;;;10.80;;
62693;SDS011;48759;52.544;13.418;2023-05-15T05:33:26;12.50;;;11.17;;
62693;SDS011;48759;52.544;13.418;2023-05-15T05:36:03;13.63;;;11.30;;
62693;SDS011;48759;52.544;13.418;2023-05-15T05:38:41;14.27;;;11.10;;
62693;SDS011;48759;52.544;13.418;2023-05-15T05:41:24;19.23;;;11.73;;
62693;SDS011;48759;52.544;13.418;2023-05-15T05:43:54;14.13;;;10.97;;
62693;SDS011;48759;52.544;13.418;2023-05-15T05:46:21;14.00;;;10.87;;
62693;SDS011;48759;52.544;13.418;2023-05-15T05:49:00;11.60;;;10.20;;
62693;SDS011;48759;52.544;13.418;2023-05-15T05:51:33;13.20;;;11.20;;
62693;SDS011;48759;52.544;13.418;2023-05-15T05:54:01;13.07;;;10.37;;
62693;SDS011;48759;52.544;13.418;2023-05-15T05:56:32;23.73;;;11.50;;
62693;SDS011;48759;52.544;13.418;2023-05-15T05:59:07;15.87;;;11.43;;
62693;SDS011;48759;52.544;13.418;2023-05-15T06:01:37;16.60;;;10.87;;
62693;SDS011;48759;52.544;13.418;2023-05-15T06:04:09;13.87;;;11.50;;
62693;SDS011;48759;52.544;13.418;2023-05-15T06:06:50;13.20;;;11.70;;
62693;SDS011;48759;52.544;13.418;2023-05-15T06:09:26;13.17;;;11.00;;
62693;SDS011;48759;52.544;13.418;2023-05-15T06:12:07;13.20;;;11.80;;
62693;SDS011;48759;52.544;13.418;2023-05-15T06:14:36;18.07;;;11.57;;
62693;SDS011;48759;52.544;13.418;2023-05-15T06:17:03;14.53;;;11.23;;
62693;SDS011;48759;52.544;13.418;2023-05-15T06:19:35;14.13;;;11.60;;
62693;SDS011;48759;52.544;13.418;2023-05-15T06:22:02;12.17;;;10.87;;
62693;SDS011;48759;52.544;13.418;2023-05-15T06:24:30;21.10;;;11.53;;
62693;SDS011;48759;52.544;13.418;2023-05-15T06:26:56;22.30;;;12.20;;
62693;SDS011;48759;52.544;13.418;2023-05-15T06:29:24;19.63;;;11.50;;
62693;SDS011;48759;52.544;13.418;2023-05-15T06:31:53;22.53;;;11.73;;
62693;SDS011;48759;52.544;13.418;2023-05-15T06:34:22;17.10;;;11.90;;
62693;SDS011;48759;52.544;13.418;2023-05-15T06:36:51;17.23;;;11.80;;
62693;SDS011;48759;52.544;13.418;2023-05-15T06:39:21;16.07;;;11.27;;
62693;SDS011;48759;52.544;13.418;2023-05-15T06:41:50;17.23;;;11.13;;
62693;SDS011;48759;52.544;13.418;2023-05-15T06:44:32;21.63;;;11.33;;
62693;SDS011;48759;52.544;13.418;2023-05-15T06:47:02;16.23;;;12.00;;
62693;SDS011;48759;52.544;13.418;2023-05-15T06:49:31;21.50;;;11.13;;
62693;SDS011;48759;52.544;13.418;2023-05-15T06:52:07;17.43;;;10.90;;
62693;SDS011;48759;52.544;13.418;2023-05-15T06:54:43;16.10;;;11.70;;
62693;SDS011;48759;52.544;13.418;2023-05-15T06:57:11;20.57;;;11.40;;
62693;SDS011;48759;52.544;13.418;2023-05-15T06:59:38;17.90;;;10.43;;
62693;SDS011;48759;52.544;13.418;2023-05-15T07:02:09;19.63;;;11.50;;
62693;SDS011;48759;52.544;13.418;2023-05-15T07:04:37;20.73;;;11.20;;
62693;SDS011;48759;52.544;13.418;2023-05-15T07:07:23;18.07;;;10.60;;
62693;SDS011;48759;52.544;13.418;2023-05-15T07:09:51;21.97;;;10.77;;
62693;SDS011;48759;52.544;13.418;2023-05-15T07:12:20;15.33;;;11.83;;
62693;SDS011;48759;52.544;13.418;2023-05-15T07:14:50;14.33;;;10.50;;
62693;SDS011;48759;52.544;13.418;2023-05-15T07:17:18;13.60;;;9.87;;
62693;SDS011;48759;52.544;13.418;2023-05-15T07:19:46;17.73;;;10.50;;
62693;SDS011;48759;52.544;13.418;2023-05-15T07:22:37;14.90;;;10.63;;
62693;SDS011;48759;52.544;13.418;2023-05-15T07:25:17;15.37;;;9.40;;
62693;SDS011;48759;52.544;13.418;2023-05-15T07:27:44;14.43;;;9.70;;
62693;SDS011;48759;52.544;13.418;2023-05-15T07:30:11;16.13;;;9.30;;
62693;SDS011;48759;52.544;13.418;2023-05-15T07:32:39;15.50;;;10.30;;
62693;SDS011;48759;52.544;13.418;2023-05-15T07:35:06;21.57;;;10.40;;
62693;SDS011;48759;52.544;13.418;2023-05-15T07:37:40;14.70;;;9.90;;
62693;SDS011;48759;52.544;13.418;2023-05-15T07:40:07;21.07;;;10.37;;
62693;SDS011;48759;52.544;13.418;2023-05-15T07:42:38;17.40;;;9.83;;
62693;SDS011;48759;52.544;13.418;2023-05-15T07:45:05;21.07;;;9.80;;
62693;SDS011;48759;52.544;13.418;2023-05-15T07:47:34;10.07;;;8.40;;
62693;SDS011;48759;52.544;13.418;2023-05-15T07:50:03;24.63;;;9.60;;
62693;SDS011;48759;52.544;13.418;2023-05-15T07:52:31;12.57;;;8.97;;
62693;SDS011;48759;52.544;13.418;2023-05-15T07:55:00;16.70;;;9.23;;
62693;SDS011;48759;52.544;13.418;2023-05-15T07:57:31;14.93;;;9.27;;
62693;SDS011;48759;52.544;13.418;2023-05-15T07:59:58;19.93;;;9.63;;
62693;SDS011;48759;52.544;13.418;2023-05-15T08:02:34;22.43;;;10.17;;
62693;SDS011;48759;52.544;13.418;2023-05-15T08:05:01;18.20;;;10.07;;
62693;SDS011;48759;52.544;13.418;2023-05-15T08:07:29;12.57;;;9.63;;
62693;SDS011;48759;52.544;13.418;2023-05-15T08:09:56;11.10;;;9.13;;
62693;SDS011;48759;52.544;13.418;2023-05-15T08:12:24;15.90;;;9.83;;
62693;SDS011;48759;52.544;13.418;2023-05-15T08:14:51;13.97;;;8.67;;
62693;SDS011;48759;52.544;13.418;2023-05-15T08:17:20;14.33;;;7.93;;
62693;SDS011;48759;52.544;13.418;2023-05-15T08:19:47;12.67;;;8.50;;
62693;SDS011;48759;52.544;13.418;2023-05-15T08:22:14;20.00;;;9.53;;
62693;SDS011;48759;52.544;13.418;2023-05-15T08:24:41;19.50;;;9.30;;
62693;SDS011;48759;52.544;13.418;2023-05-15T08:27:08;15.83;;;8.53;;
62693;SDS011;48759;52.544;13.418;2023-05-15T08:29:36;14.33;;;9.00;;
62693;SDS011;48759;52.544;13.418;2023-05-15T08:32:04;20.20;;;9.30;;
62693;SDS011;48759;52.544;13.418;2023-05-15T08:34:31;10.70;;;8.93;;
62693;SDS011;48759;52.544;13.418;2023-05-15T08:36:58;12.80;;;8.30;;
62693;SDS011;48759;52.544;13.418;2023-05-15T08:39:25;17.40;;;10.03;;
62693;SDS011;48759;52.544;13.418;2023-05-15T08:41:55;12.80;;;9.30;;
62693;SDS011;48759;52.544;13.418;2023-05-15T08:44:23;16.60;;;8.83;;
62693;SDS011;48759;52.544;13.418;2023-05-15T08:46:52;15.40;;;8.63;;
62693;SDS011;48759;52.544;13.418;2023-05-15T08:49:21;24.10;;;9.00;;
62693;SDS011;48759;52.544;13.418;2023-05-15T08:51:58;17.33;;;9.40;;
62693;SDS011;48759;52.544;13.418;2023-05-15T08:54:25;16.00;;;8.57;;
62693;SDS011;48759;52.544;13.418;2023-05-15T08:56:52;14.00;;;8.50;;
62693;SDS011;48759;52.544;13.418;2023-05-15T08:59:19;19.80;;;8.80;;
62693;SDS011;48759;52.544;13.418;2023-05-15T09:01:46;21.50;;;8.40;;
62693;SDS011;48759;52.544;13.418;2023-05-15T09:04:15;26.83;;;9.30;;
62693;SDS011;48759;52.544;13.418;2023-05-15T09:06:42;14.10;;;9.00;;
62693;SDS011;48759;52.544;13.418;2023-05-15T09:09:09;19.87;;;9.20;;
62693;SDS011;48759;52.544;13.418;2023-05-15T09:11:38;13.10;;;8.63;;
62693;SDS011;48759;52.544;13.418;2023-05-15T09:14:08;17.43;;;8.67;;
62693;SDS011;48759;52.544;13.418;2023-05-15T09:16:35;15.43;;;8.97;;
62693;SDS011;48759;52.544;13.418;2023-05-15T09:19:02;15.73;;;9.00;;
62693;SDS011;48759;52.544;13.418;2023-05-15T09:21:35;11.73;;;8.13;;
62693;SDS011;48759;52.544;13.418;2023-05-15T09:24:14;13.40;;;9.23;;
62693;SDS011;48759;52.544;13.418;2023-05-15T09:26:43;11.47;;;7.93;;
62693;SDS011;48759;52.544;13.418;2023-05-15T09:29:14;11.87;;;8.93;;
62693;SDS011;48759;52.544;13.418;2023-05-15T09:31:44;11.90;;;8.80;;
62693;SDS011;48759;52.544;13.418;2023-05-15T09:34:14;8.50;;;7.60;;
62693;SDS011;48759;52.544;13.418;2023-05-15T09:36:43;12.90;;;8.00;;
62693;SDS011;48759;52.544;13.418;2023-05-15T09:39:11;9.03;;;7.57;;
62693;SDS011;48759;52.544;13.418;2023-05-15T09:41:40;17.20;;;8.60;;
62693;SDS011;48759;52.544;13.418;2023-05-15T09:44:16;11.57;;;8.83;;
62693;SDS011;48759;52.544;13.418;2023-05-15T09:46:45;14.20;;;8.07;;
62693;SDS011;48759;52.544;13.418;2023-05-15T09:49:12;11.50;;;7.77;;
62693;SDS011;48759;52.544;13.418;2023-05-15T09:51:43;11.23;;;8.10;;
62693;SDS011;48759;52.544;13.418;2023-05-15T09:54:13;16.37;;;8.57;;
62693;SDS011;48759;52.544;13.418;2023-05-15T09:56:43;10.60;;;8.67;;
62693;SDS011;48759;52.544;13.418;2023-05-15T09:59:11;13.60;;;7.47;;
62693;SDS011;48759;52.544;13.418;2023-05-15T10:01:43;11.50;;;8.27;;
62693;SDS011;48759;52.544;13.418;2023-05-15T10:04:12;11.20;;;8.53;;
62693;SDS011;48759;52.544;13.418;2023-05-15T10:06:39;12.20;;;8.80;;
62693;SDS011;48759;52.544;13.418;2023-05-15T10:09:12;12.53;;;7.47;;
62693;SDS011;48759;52.544;13.418;2023-05-15T10:11:39;11.13;;;8.00;;
62693;SDS011;48759;52.544;13.418;2023-05-15T10:14:09;11.57;;;7.30;;
62693;SDS011;48759;52.544;13.418;2023-05-15T10:16:39;10.33;;;7.47;;
62693;SDS011;48759;52.544;13.418;2023-05-15T10:19:08;9.77;;;6.90;;
62693;SDS011;48759;52.544;13.418;2023-05-15T10:21:38;14.53;;;7.00;;
62693;SDS011;48759;52.544;13.418;2023-05-15T10:24:08;9.80;;;7.83;;
62693;SDS011;48759;52.544;13.418;2023-05-15T10:26:38;9.10;;;7.33;;
62693;SDS011;48759;52.544;13.418;2023-05-15T10:29:07;10.37;;;7.83;;
62693;SDS011;48759;52.544;13.418;2023-05-15T10:31:36;8.43;;;7.03;;
62693;SDS011;48759;52.544;13.418;2023-05-15T10:34:03;9.27;;;7.70;;
62693;SDS011;48759;52.544;13.418;2023-05-15T10:36:31;10.73;;;7.20;;
62693;SDS011;48759;52.544;13.418;2023-05-15T10:39:07;10.80;;;8.10;;
62693;SDS011;48759;52.544;13.418;2023-05-15T10:41:36;14.83;;;11.20;;
62693;SDS011;48759;52.544;13.418;2023-05-15T10:44:12;14.63;;;8.63;;
62693;SDS011;48759;52.544;13.418;2023-05-15T10:46:41;10.33;;;7.90;;
62693;SDS011;48759;52.544;13.418;2023-05-15T10:49:10;10.50;;;6.97;;
62693;SDS011;48759;52.544;13.418;2023-05-15T10:51:38;9.77;;;6.00;;
62693;SDS011;48759;52.544;13.418;2023-05-15T10:54:15;9.43;;;5.97;;
62693;SDS011;48759;52.544;13.418;2023-05-15T10:56:46;5.60;;;5.07;;
62693;SDS011;48759;52.544;13.418;2023-05-15T10:59:14;6.33;;;4.30;;
62693;SDS011;48759;52.544;13.418;2023-05-15T11:01:46;6.83;;;4.83;;
62693;SDS011;48759;52.544;13.418;2023-05-15T11:04:17;4.93;;;3.87;;
62693;SDS011;48759;52.544;13.418;2023-05-15T11:06:52;4.30;;;3.90;;
62693;SDS011;48759;52.544;13.418;2023-05-15T11:09:42;5.27;;;4.03;;
62693;SDS011;48759;52.544;13.418;2023-05-15T11:12:09;4.20;;;3.80;;
62693;SDS011;48759;52.544;13.418;2023-05-15T11:14:39;4.57;;;4.17;;
62693;SDS011;48759;52.544;13.418;2023-05-15T11:17:08;8.73;;;3.90;;
62693;SDS011;48759;52.544;13.418;2023-05-15T11:19:37;11.87;;;3.83;;
62693;SDS011;48759;52.544;13.418;2023-05-15T11:22:25;4.27;;;3.80;;
62693;SDS011;48759;52.544;13.418;2023-05-15T11:24:58;4.93;;;4.03;;
62693;SDS011;48759;52.544;13.418;2023-05-15T11:27:28;4.70;;;4.27;;
62693;SDS011;48759;52.544;13.418;2023-05-15T11:30:05;5.13;;;4.33;;
62693;SDS011;48759;52.544;13.418;2023-05-15T11:33:12;5.50;;;4.70;;
62693;SDS011;48759;52.544;13.418;2023-05-15T11:35:41;5.30;;;4.37;;
62693;SDS011;48759;52.544;13.418;2023-05-15T11:38:11;8.13;;;4.30;;
62693;SDS011;48759;52.544;13.418;2023-05-15T11:40:44;5.20;;;4.63;;
62693;SDS011;48759;52.544;13.418;2023-05-15T11:43:16;8.07;;;4.67;;
62693;SDS011;48759;52.544;13.418;2023-05-15T11:45:45;5.20;;;4.47;;
62693;SDS011;48759;52.544;13.418;2023-05-15T11:48:13;10.30;;;6.13;;
62693;SDS011;48759;52.544;13.418;2023-05-15T11:50:43;5.93;;;5.40;;
62693;SDS011;48759;52.544;13.418;2023-05-15T11:53:10;7.77;;;5.17;;
62693;SDS011;48759;52.544;13.418;2023-05-15T11:55:39;8.93;;;5.90;;
62693;SDS011;48759;52.544;13.418;2023-05-15T11:58:12;5.80;;;5.17;;
62693;SDS011;48759;52.544;13.418;2023-05-15T12:00:42;6.53;;;5.77;;
62693;SDS011;48759;52.544;13.418;2023-05-15T12:03:12;7.43;;;5.17;;
62693;SDS011;48759;52.544;13.418;2023-05-15T12:05:41;7.37;;;5.17;;
62693;SDS011;48759;52.544;13.418;2023-05-15T12:08:09;5.50;;;4.20;;
62693;SDS011;48759;52.544;13.418;2023-05-15T12:10:40;4.53;;;3.90;;
62693;SDS011;48759;52.544;13.418;2023-05-15T12:13:08;6.63;;;4.90;;
62693;SDS011;48759;52.544;13.418;2023-05-15T12:15:38;5.13;;;3.63;;
62693;SDS011;48759;52.544;13.418;2023-05-15T12:18:09;4.13;;;3.83;;
62693;SDS011;48759;52.544;13.418;2023-05-15T12:20:37;6.77;;;4.20;;
62693;SDS011;48759;52.544;13.418;2023-05-15T12:23:09;6.47;;;5.50;;
62693;SDS011;48759;52.544;13.418;2023-05-15T12:25:44;7.20;;;4.33;;
62693;SDS011;48759;52.544;13.418;2023-05-15T12:28:22;7.67;;;3.77;;
62693;SDS011;48759;52.544;13.418;2023-05-15T12:30:51;4.80;;;4.07;;
62693;SDS011;48759;52.544;13.418;2023-05-15T12:33:19;3.80;;;3.50;;
62693;SDS011;48759;52.544;13.418;2023-05-15T12:35:48;5.90;;;4.20;;
62693;SDS011;48759;52.544;13.418;2023-05-15T12:38:17;6.23;;;4.97;;
62693;SDS011;48759;52.544;13.418;2023-05-15T12:40:54;6.00;;;4.30;;
62693;SDS011;48759;52.544;13.418;2023-05-15T12:43:23;4.57;;;3.80;;
62693;SDS011;48759;52.544;13.418;2023-05-15T12:45:54;5.73;;;4.00;;
62693;SDS011;48759;52.544;13.418;2023-05-15T12:48:22;9.97;;;3.83;;
62693;SDS011;48759;52.544;13.418;2023-05-15T12:51:03;7.93;;;3.63;;
62693;SDS011;48759;52.544;13.418;2023-05-15T12:53:31;9.37;;;4.83;;
62693;SDS011;48759;52.544;13.418;2023-05-15T12:56:03;5.50;;;5.00;;
62693;SDS011;48759;52.544;13.418;2023-05-15T12:58:30;4.80;;;4.40;;
62693;SDS011;48759;52.544;13.418;2023-05-15T13:01:02;5.33;;;4.30;;
62693;SDS011;48759;52.544;13.418;2023-05-15T13:03:29;4.47;;;4.07;;
62693;SDS011;48759;52.544;13.418;2023-05-15T13:05:58;5.20;;;4.80;;
62693;SDS011;48759;52.544;13.418;2023-05-15T13:08:27;8.57;;;4.30;;
62693;SDS011;48759;52.544;13.418;2023-05-15T13:10:55;9.87;;;5.07;;
62693;SDS011;48759;52.544;13.418;2023-05-15T13:13:39;4.70;;;2.90;;
62693;SDS011;48759;52.544;13.418;2023-05-15T13:16:18;3.20;;;2.90;;
62693;SDS011;48759;52.544;13.418;2023-05-15T13:18:47;3.30;;;2.80;;
62693;SDS011;48759;52.544;13.418;2023-05-15T13:21:16;5.50;;;3.30;;
62693;SDS011;48759;52.544;13.418;2023-05-15T13:23:47;6.60;;;3.40;;
62693;SDS011;48759;52.544;13.418;2023-05-15T13:26:16;3.43;;;3.13;;
62693;SDS011;48759;52.544;13.418;2023-05-15T13:28:43;5.20;;;3.60;;
62693;SDS011;48759;52.544;13.418;2023-05-15T13:31:14;3.27;;;3.00;;
62693;SDS011;48759;52.544;13.418;2023-05-15T13:33:45;4.40;;;2.77;;
62693;SDS011;48759;52.544;13.418;2023-05-15T13:36:14;6.10;;;2.43;;
62693;SDS011;48759;52.544;13.418;2023-05-15T13:38:41;7.23;;;3.03;;
62693;SDS011;48759;52.544;13.418;2023-05-15T13:41:08;7.20;;;2.67;;
62693;SDS011;48759;52.544;13.418;2023-05-15T13:43:35;8.53;;;2.70;;
62693;SDS011;48759;52.544;13.418;2023-05-15T13:46:02;3.80;;;2.93;;
62693;SDS011;48759;52.544;13.418;2023-05-15T13:48:29;7.57;;;2.70;;
62693;SDS011;48759;52.544;13.418;2023-05-15T13:50:57;5.33;;;3.90;;
62693;SDS011;48759;52.544;13.418;2023-05-15T13:53:25;3.37;;;2.63;;
62693;SDS011;48759;52.544;13.418;2023-05-15T13:55:53;3.90;;;2.70;;
62693;SDS011;48759;52.544;13.418;2023-05-15T13:58:27;11.20;;;3.00;;
62693;SDS011;48759;52.544;13.418;2023-05-15T14:00:58;3.60;;;3.30;;
62693;SDS011;48759;52.544;13.418;2023-05-15T14:03:25;8.03;;;3.50;;
62693;SDS011;48759;52.544;13.418;2023-05-15T14:05:51;9.43;;;3.80;;
62693;SDS011;48759;52.544;13.418;2023-05-15T14:08:20;4.40;;;3.40;;
62693;SDS011;48759;52.544;13.418;2023-05-15T14:10:47;4.00;;;3.70;;
62693;SDS011;48759;52.544;13.418;2023-05-15T14:13:13;6.93;;;3.87;;
62693;SDS011;48759;52.544;13.418;2023-05-15T14:15:40;5.60;;;3.50;;
62693;SDS011;48759;52.544;13.418;2023-05-15T14:18:07;3.80;;;3.50;;
62693;SDS011;48759;52.544;13.418;2023-05-15T14:20:34;4.53;;;4.13;;
62693;SDS011;48759;52.544;13.418;2023-05-15T14:23:01;4.63;;;4.20;;
62693;SDS011;48759;52.544;13.418;2023-05-15T14:25:29;4.73;;;4.10;;
62693;SDS011;48759;52.544;13.418;2023-05-15T14:27:56;5.07;;;4.57;;
62693;SDS011;48759;52.544;13.418;2023-05-15T14:30:23;4.10;;;3.50;;
62693;SDS011;48759;52.544;13.418;2023-05-15T14:32:50;4.63;;;4.10;;
62693;SDS011;48759;52.544;13.418;2023-05-15T14:35:16;5.30;;;4.50;;
62693;SDS011;48759;52.544;13.418;2023-05-15T14:37:43;5.80;;;4.80;;
62693;SDS011;48759;52.544;13.418;2023-05-15T14:40:10;4.03;;;3.73;;
62693;SDS011;48759;52.544;13.418;2023-05-15T14:42:39;4.63;;;4.20;;
62693;SDS011;48759;52.544;13.418;2023-05-15T14:45:06;8.13;;;3.80;;
62693;SDS011;48759;52.544;13.418;2023-05-15T14:47:33;4.33;;;3.93;;
62693;SDS011;48759;52.544;13.418;2023-05-15T14:50:00;4.47;;;3.83;;